Time;durP1;ratioP1;P1;durP2;ratioP2;P2;SDS_P1;SDS_P2;PMS_P1;PMS_P2;Temp;Humidity;BMP_temperature;BMP_pressure;BME280_temperature;BME280_humidity;BME280_pressure;Samples;Min_cycle;Max_cycle;Signal;HPM_P1;HPM_P2
2023/09/07 07:21:46;;;;;;;4.70;3.23;;;24.10;89.80;;;;;;6130536;23;20435;-96
2023/09/07 07:24:38;;;;;;;2.67;2.30;;;24.20;90.00;;;;;;6068427;23;20425;-92
2023/09/07 07:30:41;;;;;;;5.13;2.43;;;24.10;89.60;;;;;;6172781;23;20418;-93
2023/09/07 07:33:08;;;;;;;3.73;2.50;;;24.10;89.70;;;;;;6161767;23;20403;-96
2023/09/07 07:35:35;;;;;;;3.83;3.10;;;24.10;90.20;;;;;;6160123;23;20412;-96
2023/09/07 07:38:04;;;;;;;2.80;2.60;;;24.10;89.50;;;;;;6158846;23;20400;-92
2023/09/07 07:40:31;;;;;;;2.83;2.50;;;24.10;89.50;;;;;;6158125;23;20510;-92
2023/09/07 07:42:58;;;;;;;3.97;2.63;;;24.10;89.40;;;;;;6157724;23;20959;-92
2023/09/07 07:45:25;;;;;;;2.97;2.53;;;24.10;89.40;;;;;;6158059;23;20439;-91
2023/09/07 07:47:53;;;;;;;4.90;2.53;;;24.20;89.50;;;;;;6132067;23;20408;-96
2023/09/07 07:50:20;;;;;;;3.20;2.90;;;24.20;89.50;;;;;;6159203;23;20486;-92
2023/09/07 07:52:46;;;;;;;3.40;2.30;;;24.20;89.40;;;;;;6157436;23;20502;-93
2023/09/07 07:55:15;;;;;;;2.50;2.30;;;24.20;89.50;;;;;;6157570;23;20499;-96
2023/09/07 07:57:41;;;;;;;2.23;2.03;;;24.20;89.50;;;;;;6157951;23;20428;-96
2023/09/07 08:00:10;;;;;;;3.10;2.90;;;24.20;89.40;;;;;;6157187;23;20945;-96
2023/09/07 08:02:37;;;;;;;4.80;2.60;;;24.20;89.50;;;;;;6157245;23;20411;-94
2023/09/07 08:05:05;;;;;;;3.20;2.57;;;24.20;89.50;;;;;;6157091;23;20478;-92
2023/09/07 08:07:32;;;;;;;2.93;2.47;;;24.20;89.50;;;;;;6157101;23;20411;-96
2023/09/07 08:09:58;;;;;;;2.67;2.47;;;24.10;89.30;;;;;;6158575;23;20491;-93
2023/09/07 08:12:27;;;;;;;2.47;2.27;;;24.20;89.50;;;;;;6134437;23;20412;-95
2023/09/07 08:14:55;;;;;;;2.67;2.33;;;24.20;89.50;;;;;;6157955;23;20471;-96
2023/09/07 08:17:23;;;;;;;2.40;2.20;;;24.20;89.50;;;;;;6130928;23;20415;-95
2023/09/07 08:19:55;;;;;;;2.43;2.20;;;24.20;89.50;;;;;;6156301;23;20412;-91
2023/09/07 08:22:22;;;;;;;3.00;2.20;;;24.20;89.60;;;;;;6156584;23;20412;-92
2023/09/07 08:24:49;;;;;;;2.33;2.00;;;24.20;89.50;;;;;;6156905;23;20791;-92
2023/09/07 08:27:18;;;;;;;2.63;2.43;;;24.20;89.50;;;;;;6156927;23;20444;-96
2023/09/07 08:29:51;;;;;;;2.93;2.63;;;24.20;89.50;;;;;;6156677;23;20408;-91
2023/09/07 08:32:18;;;;;;;2.20;2.00;;;24.20;89.50;;;;;;6156963;23;20403;-92
2023/09/07 08:34:45;;;;;;;2.63;2.10;;;24.20;89.50;;;;;;6157766;23;20508;-91
2023/09/07 08:37:11;;;;;;;2.90;2.40;;;24.20;89.50;;;;;;6156632;23;20404;-91
2023/09/07 08:39:39;;;;;;;2.40;2.20;;;24.20;89.50;;;;;;6156888;23;20407;-92
2023/09/07 08:42:06;;;;;;;3.73;2.67;;;24.20;89.50;;;;;;6155917;23;20923;-91
2023/09/07 08:44:37;;;;;;;3.00;2.20;;;24.20;89.50;;;;;;6156124;23;20410;-96
2023/09/07 08:47:06;;;;;;;2.70;1.93;;;24.20;89.50;;;;;;6157940;23;20410;-91
2023/09/07 08:49:34;;;;;;;2.50;2.30;;;24.20;89.50;;;;;;6158661;23;20400;-95
2023/09/07 08:52:08;;;;;;;2.50;2.23;;;24.20;89.50;;;;;;6158681;23;20403;-91
2023/09/07 08:54:36;;;;;;;2.30;2.07;;;24.20;89.50;;;;;;6158799;23;20466;-91
2023/09/07 08:57:04;;;;;;;3.10;2.30;;;24.20;89.50;;;;;;6158112;23;20499;-91
2023/09/07 08:59:31;;;;;;;2.33;2.13;;;24.20;89.60;;;;;;6158224;23;20436;-91
2023/09/07 09:01:59;;;;;;;2.63;2.43;;;24.20;89.60;;;;;;6158169;23;20439;-91
2023/09/07 09:04:28;;;;;;;3.00;2.43;;;24.20;89.50;;;;;;6157961;23;20403;-91
2023/09/07 09:06:55;;;;;;;2.73;2.40;;;24.20;89.50;;;;;;6158033;23;20407;-91
2023/09/07 09:09:25;;;;;;;2.50;2.30;;;24.20;89.50;;;;;;6158338;23;20407;-91
2023/09/07 09:11:53;;;;;;;2.47;2.27;;;24.20;90.10;;;;;;6158785;23;20413;-94
2023/09/07 09:14:22;;;;;;;3.87;2.30;;;24.20;89.50;;;;;;6157328;23;20886;-89
2023/09/07 09:16:52;;;;;;;4.33;2.83;;;24.20;89.50;;;;;;6157733;23;20422;-88
2023/09/07 09:19:19;;;;;;;2.80;2.60;;;24.20;89.60;;;;;;6157490;23;20791;-88
2023/09/07 09:21:49;;;;;;;2.50;2.30;;;24.20;89.50;;;;;;6157612;23;20522;-88
2023/09/07 09:24:18;;;;;;;3.37;2.53;;;24.20;89.60;;;;;;6157305;23;20935;-88
2023/09/07 09:26:45;;;;;;;2.53;2.17;;;24.20;89.50;;;;;;6157121;23;20451;-94
2023/09/07 09:29:12;;;;;;;2.20;1.97;;;24.20;89.50;;;;;;6158037;23;20571;-88
2023/09/07 09:31:39;;;;;;;3.10;2.50;;;24.20;89.50;;;;;;6157626;23;20407;-88
2023/09/07 09:34:05;;;;;;;3.10;2.43;;;24.20;89.50;;;;;;6157899;23;20396;-94
2023/09/07 09:36:36;;;;;;;2.93;2.50;;;24.20;89.60;;;;;;6157480;23;20494;-89
2023/09/07 09:39:05;;;;;;;3.30;2.07;;;24.30;89.70;;;;;;6157865;23;20407;-94
2023/09/07 09:41:33;;;;;;;3.43;2.23;;;24.20;89.60;;;;;;6158011;23;20483;-88
2023/09/07 09:44:03;;;;;;;2.93;2.57;;;24.20;89.60;;;;;;6157774;23;20392;-88
2023/09/07 09:46:32;;;;;;;2.80;2.33;;;24.20;89.50;;;;;;6157520;23;20478;-92
2023/09/07 09:48:59;;;;;;;2.87;2.67;;;24.20;89.50;;;;;;6157859;23;20491;-89
2023/09/07 09:51:28;;;;;;;2.33;2.13;;;24.20;89.50;;;;;;6159438;23;20479;-90
2023/09/07 09:53:56;;;;;;;2.80;2.60;;;24.20;89.60;;;;;;6159990;23;20478;-92
2023/09/07 09:56:26;;;;;;;2.60;2.00;;;24.20;89.70;;;;;;6159403;23;20420;-90
2023/09/07 09:58:53;;;;;;;3.07;2.87;;;24.40;89.90;;;;;;6159179;23;20407;-91
2023/09/07 10:01:22;;;;;;;2.83;2.63;;;24.20;89.90;;;;;;6157719;23;20451;-91
2023/09/07 10:03:51;;;;;;;3.30;2.13;;;24.30;89.80;;;;;;6157591;23;20459;-90
2023/09/07 10:06:24;;;;;;;2.77;2.23;;;24.30;89.80;;;;;;6157252;23;20913;-91
2023/09/07 10:08:54;;;;;;;3.97;1.67;;;24.30;89.60;;;;;;6158164;23;20398;-91
2023/09/07 10:11:31;;;;;;;3.80;2.90;;;24.30;89.70;;;;;;6157913;23;20416;-91
2023/09/07 10:13:58;;;;;;;2.57;2.20;;;24.30;89.60;;;;;;6157614;23;20391;-91
2023/09/07 10:16:26;;;;;;;2.63;2.20;;;24.20;89.50;;;;;;6158667;23;20399;-92
2023/09/07 10:18:54;;;;;;;2.80;2.60;;;24.30;89.70;;;;;;6162090;23;20415;-91
2023/09/07 10:21:25;;;;;;;2.87;2.60;;;24.30;90.30;;;;;;6162625;23;20444;-96
2023/09/07 10:23:53;;;;;;;3.10;2.80;;;24.20;90.10;;;;;;6162545;23;20408;-91
2023/09/07 10:26:22;;;;;;;3.07;2.77;;;24.30;90.20;;;;;;6163160;23;20439;-91
2023/09/07 10:29:00;;;;;;;3.10;2.73;;;24.30;90.10;;;;;;6163028;23;20410;-93
2023/09/07 10:31:27;;;;;;;3.07;2.40;;;24.30;90.10;;;;;;6162072;23;20880;-92
2023/09/07 10:33:54;;;;;;;8.60;3.27;;;24.30;90.00;;;;;;6162260;23;20442;-95
2023/09/07 10:36:22;;;;;;;3.70;3.00;;;24.30;90.00;;;;;;6161810;23;20418;-95
2023/09/07 10:38:52;;;;;;;3.30;3.00;;;24.30;90.00;;;;;;6162063;23;20423;-96
2023/09/07 10:41:19;;;;;;;4.37;3.37;;;24.30;90.10;;;;;;6162982;23;20447;-94
2023/09/07 10:43:52;;;;;;;6.67;3.60;;;24.30;90.10;;;;;;6162136;23;20812;-94
2023/09/07 10:46:20;;;;;;;4.73;2.93;;;24.30;90.10;;;;;;6162783;23;20464;-96
2023/09/07 10:48:50;;;;;;;3.50;2.70;;;24.30;90.20;;;;;;6163038;23;20722;-92
2023/09/07 10:51:17;;;;;;;6.33;3.50;;;24.30;90.10;;;;;;6163390;23;20475;-96
2023/09/07 10:53:43;;;;;;;4.00;2.80;;;24.30;90.50;;;;;;6164057;23;20404;-91
2023/09/07 10:56:11;;;;;;;3.73;3.00;;;24.30;90.20;;;;;;6163260;23;20443;-96
2023/09/07 10:58:40;;;;;;;4.43;3.20;;;24.40;90.60;;;;;;6160601;23;20432;-91
2023/09/07 11:01:09;;;;;;;3.40;2.87;;;24.40;90.60;;;;;;6161576;23;20436;-95
2023/09/07 11:03:37;;;;;;;2.83;2.63;;;24.40;90.70;;;;;;6162351;23;20435;-92
2023/09/07 11:06:08;;;;;;;2.87;2.67;;;24.40;90.60;;;;;;6162851;23;20444;-92
2023/09/07 11:08:35;;;;;;;4.90;2.87;;;24.40;90.50;;;;;;6163273;23;20428;-94
2023/09/07 11:11:03;;;;;;;3.67;3.30;;;24.40;90.80;;;;;;6163758;23;20474;-95
2023/09/07 11:13:31;;;;;;;2.97;2.57;;;24.40;90.40;;;;;;6162550;23;20404;-90
2023/09/07 11:15:58;;;;;;;5.97;3.40;;;24.40;90.40;;;;;;6160873;23;20518;-95
2023/09/07 11:18:27;;;;;;;2.60;2.33;;;24.40;90.40;;;;;;6162625;23;20435;-91
2023/09/07 11:21:03;;;;;;;4.33;3.33;;;24.40;90.40;;;;;;6163402;23;20494;-96
2023/09/07 11:23:35;;;;;;;3.00;2.80;;;24.40;90.60;;;;;;6161415;23;20418;-95
2023/09/07 11:26:05;;;;;;;6.17;3.10;;;24.50;91.10;;;;;;6160838;23;20498;-91
2023/09/07 11:28:32;;;;;;;7.40;2.27;;;24.40;91.10;;;;;;6156947;23;20398;-94
2023/09/07 11:31:00;;;;;;;3.23;2.80;;;24.40;91.10;;;;;;6156365;23;20400;-93
2023/09/07 11:33:32;;;;;;;5.40;3.00;;;24.40;90.80;;;;;;6156677;23;20427;-89
2023/09/07 11:35:58;;;;;;;5.97;3.33;;;24.40;90.70;;;;;;6156488;23;20979;-92
2023/09/07 11:38:30;;;;;;;2.77;2.37;;;24.40;90.60;;;;;;6156892;23;20422;-93
2023/09/07 11:40:57;;;;;;;5.20;3.30;;;24.40;90.60;;;;;;6156749;23;20459;-93
2023/09/07 11:43:24;;;;;;;5.03;3.33;;;24.40;90.60;;;;;;6156016;23;20496;-93
2023/09/07 11:46:08;;;;;;;3.90;2.67;;;24.40;90.50;;;;;;6157265;23;20958;-93
2023/09/07 11:48:36;;;;;;;3.10;2.80;;;24.40;91.00;;;;;;6156890;23;20428;-91
2023/09/07 11:51:04;;;;;;;3.07;2.80;;;24.40;90.70;;;;;;6157495;23;20432;-89
2023/09/07 11:53:48;;;;;;;5.63;2.73;;;24.40;90.70;;;;;;6167466;23;20749;-92
2023/09/07 11:56:15;;;;;;;2.70;2.50;;;24.40;90.70;;;;;;6158034;23;20815;-94
2023/09/07 11:58:43;;;;;;;2.83;2.43;;;24.40;90.60;;;;;;6161055;23;20416;-94
2023/09/07 12:01:10;;;;;;;3.37;3.07;;;24.40;90.90;;;;;;6156731;23;20414;-96
2023/09/07 12:03:39;;;;;;;3.33;3.03;;;24.50;90.50;;;;;;6156881;23;20407;-91
2023/09/07 12:06:09;;;;;;;3.10;2.90;;;24.40;90.50;;;;;;6158136;23;20494;-96
2023/09/07 12:08:36;;;;;;;3.10;2.87;;;24.40;90.50;;;;;;6157257;23;20406;-95
2023/09/07 12:11:03;;;;;;;3.47;3.17;;;24.40;90.40;;;;;;6158341;23;20408;-96
2023/09/07 12:13:29;;;;;;;3.57;2.60;;;24.50;90.50;;;;;;6157018;23;20713;-93
2023/09/07 12:15:56;;;;;;;3.47;3.10;;;24.40;90.40;;;;;;6156275;23;20430;-92
2023/09/07 12:18:43;;;;;;;3.40;2.40;;;24.50;90.50;;;;;;6158517;23;20486;-96
2023/09/07 12:21:10;;;;;;;3.20;2.90;;;24.50;90.60;;;;;;6161018;23;20463;-94
2023/09/07 12:24:01;;;;;;;3.13;2.60;;;24.50;90.60;;;;;;6161457;23;20408;-94
2023/09/07 12:26:28;;;;;;;3.20;2.90;;;24.40;90.60;;;;;;6159427;23;20510;-95
2023/09/07 12:29:00;;;;;;;2.90;2.50;;;24.50;90.70;;;;;;6165122;23;20403;-96
2023/09/07 12:31:38;;;;;;;3.23;2.93;;;24.50;90.70;;;;;;6191097;23;20535;-96
2023/09/07 12:34:14;;;;;;;2.73;2.53;;;24.50;90.70;;;;;;6187520;23;20486;-96
2023/09/07 12:36:42;;;;;;;4.40;2.87;;;24.40;90.70;;;;;;6160797;23;20399;-95
2023/09/07 12:39:12;;;;;;;4.33;2.77;;;24.50;90.70;;;;;;6156736;23;20408;-94
2023/09/07 12:41:39;;;;;;;2.80;2.60;;;24.50;90.80;;;;;;6156926;23;20447;-93
2023/09/07 12:44:06;;;;;;;6.07;3.07;;;24.50;90.80;;;;;;6156741;23;20414;-96
2023/09/07 12:46:33;;;;;;;4.77;3.27;;;24.50;90.70;;;;;;6131791;23;20411;-95
2023/09/07 12:49:00;;;;;;;3.73;2.87;;;24.50;90.70;;;;;;6157838;23;20431;-91
2023/09/07 12:51:28;;;;;;;3.20;2.57;;;24.50;90.80;;;;;;6156203;23;20439;-95
2023/09/07 12:53:55;;;;;;;3.50;2.70;;;24.50;90.90;;;;;;6156664;23;20423;-96
2023/09/07 12:56:22;;;;;;;3.40;3.10;;;24.50;90.80;;;;;;6156234;23;20404;-94
2023/09/07 12:58:49;;;;;;;3.10;2.80;;;24.50;90.80;;;;;;6156205;23;20428;-95
2023/09/07 13:01:16;;;;;;;2.90;2.70;;;24.50;90.80;;;;;;6156674;23;20400;-96
2023/09/07 13:03:43;;;;;;;8.83;3.73;;;24.50;90.80;;;;;;6156556;23;20494;-94
2023/09/07 13:06:10;;;;;;;3.23;2.93;;;24.50;90.80;;;;;;6156269;23;20407;-96
2023/09/07 13:08:38;;;;;;;3.20;3.00;;;24.50;90.80;;;;;;6157173;23;20419;-95
2023/09/07 13:11:05;;;;;;;3.40;3.10;;;24.50;90.90;;;;;;6156360;23;20899;-95
2023/09/07 13:13:32;;;;;;;4.70;3.00;;;24.50;90.90;;;;;;6156778;23;20495;-96
2023/09/07 13:16:00;;;;;;;3.20;2.87;;;24.50;90.80;;;;;;6156980;23;20408;-96
2023/09/07 13:18:27;;;;;;;5.37;3.30;;;24.50;90.90;;;;;;6156941;23;20437;-96
2023/09/07 13:20:59;;;;;;;3.67;2.90;;;24.50;90.80;;;;;;6156842;23;20876;-96
2023/09/07 13:23:26;;;;;;;3.63;3.33;;;24.60;90.80;;;;;;6156354;23;20490;-95
2023/09/07 13:25:54;;;;;;;3.10;2.83;;;24.50;90.70;;;;;;6156817;23;20435;-90
2023/09/07 13:28:21;;;;;;;2.80;2.60;;;24.60;90.80;;;;;;6157059;23;20411;-91
2023/09/07 13:30:48;;;;;;;3.40;2.70;;;24.50;90.70;;;;;;6156806;23;20403;-96
2023/09/07 13:33:15;;;;;;;3.77;3.17;;;24.50;90.80;;;;;;6157244;23;20419;-95
2023/09/07 13:35:43;;;;;;;3.17;2.87;;;24.60;90.80;;;;;;6158684;23;20954;-96
2023/09/07 13:38:10;;;;;;;3.23;2.87;;;24.60;90.80;;;;;;6159251;23;20734;-96
2023/09/07 13:40:37;;;;;;;2.67;2.43;;;24.60;90.80;;;;;;6159051;23;20495;-96
2023/09/07 13:43:05;;;;;;;8.30;2.83;;;24.60;90.80;;;;;;6158424;23;20443;-96
2023/09/07 13:45:32;;;;;;;3.20;2.90;;;24.60;90.80;;;;;;6158966;23;20418;-96
2023/09/07 13:47:59;;;;;;;3.93;2.97;;;24.60;90.80;;;;;;6158396;23;20498;-96
2023/09/07 13:50:28;;;;;;;4.20;2.93;;;24.60;90.80;;;;;;6158624;23;20479;-96
2023/09/07 13:52:55;;;;;;;4.50;3.63;;;24.60;90.80;;;;;;6158312;23;20895;-95
2023/09/07 13:55:22;;;;;;;2.80;2.60;;;24.60;90.80;;;;;;6159182;23;20503;-96
2023/09/07 13:57:48;;;;;;;2.90;2.70;;;24.60;90.80;;;;;;6159145;23;20790;-96
2023/09/07 14:00:17;;;;;;;2.47;2.27;;;24.60;91.00;;;;;;6158197;23;20443;-96
2023/09/07 14:02:44;;;;;;;4.77;3.07;;;24.60;91.00;;;;;;6157700;23;20431;-96
2023/09/07 14:05:11;;;;;;;3.53;3.30;;;24.60;90.90;;;;;;6158258;23;20932;-95
2023/09/07 14:07:38;;;;;;;3.90;2.90;;;24.60;90.90;;;;;;6158268;23;20875;-95
2023/09/07 14:10:05;;;;;;;2.77;2.57;;;24.60;90.90;;;;;;6157695;23;20491;-96
2023/09/07 14:12:32;;;;;;;3.10;2.90;;;24.60;90.90;;;;;;6157781;23;20404;-96
2023/09/07 14:14:59;;;;;;;2.73;2.53;;;24.60;91.00;;;;;;6158006;23;20805;-96
2023/09/07 14:17:27;;;;;;;2.93;2.73;;;24.60;90.90;;;;;;6157724;23;20404;-96
2023/09/07 14:19:54;;;;;;;3.00;2.80;;;24.60;91.00;;;;;;6158458;23;20411;-96
2023/09/07 14:22:21;;;;;;;2.67;2.47;;;24.60;91.10;;;;;;6157836;23;20455;-94
2023/09/07 14:24:48;;;;;;;3.30;3.10;;;24.60;91.10;;;;;;6157271;23;20435;-95
2023/09/07 14:27:15;;;;;;;3.33;3.10;;;24.60;91.10;;;;;;6157620;23;20414;-94
2023/09/07 14:29:42;;;;;;;3.13;2.90;;;24.60;91.10;;;;;;6157789;23;20396;-93
2023/09/07 14:32:09;;;;;;;2.83;2.63;;;24.60;91.10;;;;;;6157343;23;20490;-94
2023/09/07 14:34:37;;;;;;;3.00;2.80;;;24.60;91.00;;;;;;6173387;23;20437;-91
2023/09/07 14:37:04;;;;;;;3.27;2.83;;;24.60;91.00;;;;;;6187050;23;20961;-95
2023/09/07 14:39:31;;;;;;;2.67;2.47;;;24.60;91.00;;;;;;6187415;23;20433;-94
2023/09/07 14:41:58;;;;;;;3.13;2.93;;;24.60;91.00;;;;;;6186997;23;20483;-96
2023/09/07 14:44:25;;;;;;;3.40;3.17;;;24.70;91.10;;;;;;6187348;23;20469;-95
2023/09/07 14:46:52;;;;;;;2.90;2.70;;;24.60;91.00;;;;;;6188057;23;20494;-93
2023/09/07 14:49:20;;;;;;;3.03;2.77;;;24.60;91.10;;;;;;6187881;23;20399;-93
2023/09/07 14:51:49;;;;;;;4.60;3.00;;;24.60;91.10;;;;;;6187570;23;20415;-93
2023/09/07 14:54:16;;;;;;;3.07;2.87;;;24.70;91.10;;;;;;6187923;23;20418;-95
2023/09/07 14:56:43;;;;;;;6.93;2.90;;;24.70;91.40;;;;;;6187856;23;20410;-95
2023/09/07 14:59:10;;;;;;;3.40;3.10;;;24.60;91.00;;;;;;6187901;23;20449;-95
2023/09/07 15:01:38;;;;;;;5.03;3.27;;;24.60;91.00;;;;;;6187192;23;20439;-95
2023/09/07 15:04:05;;;;;;;3.30;3.00;;;24.60;91.00;;;;;;6187707;23;20745;-95
2023/09/07 15:06:33;;;;;;;5.17;2.70;;;24.70;91.00;;;;;;6187597;23;20765;-95
2023/09/07 15:09:01;;;;;;;3.27;3.00;;;24.70;91.10;;;;;;6187071;23;20450;-95
2023/09/07 15:11:28;;;;;;;3.20;3.00;;;24.70;91.10;;;;;;6187942;23;20789;-96
2023/09/07 15:13:55;;;;;;;3.00;2.80;;;24.70;91.20;;;;;;6187372;23;20502;-96
2023/09/07 15:16:23;;;;;;;3.20;3.00;;;24.70;91.10;;;;;;6161947;23;20410;-94
2023/09/07 15:18:51;;;;;;;3.90;3.10;;;24.70;91.10;;;;;;6186983;23;20413;-95
2023/09/07 15:21:21;;;;;;;4.33;3.00;;;24.70;91.10;;;;;;6187129;23;20414;-95
2023/09/07 15:23:55;;;;;;;6.43;2.93;;;24.70;91.30;;;;;;6187571;23;20530;-92
2023/09/07 15:26:24;;;;;;;8.50;2.80;;;24.70;91.30;;;;;;6187209;23;20407;-92
2023/09/07 15:28:51;;;;;;;3.97;3.20;;;24.70;91.20;;;;;;6186862;23;20441;-93
2023/09/07 15:31:18;;;;;;;3.70;2.83;;;24.70;91.10;;;;;;6187237;23;20403;-91
2023/09/07 15:33:44;;;;;;;3.50;3.03;;;24.70;91.10;;;;;;6186516;23;20434;-95
2023/09/07 15:36:13;;;;;;;3.07;2.87;;;24.70;91.20;;;;;;6187205;23;20482;-95
2023/09/07 15:38:42;;;;;;;4.53;2.90;;;24.70;91.20;;;;;;6188920;23;20493;-96
2023/09/07 15:41:09;;;;;;;6.63;3.30;;;24.70;91.10;;;;;;6188551;23;20395;-96
2023/09/07 15:43:37;;;;;;;3.10;2.90;;;24.70;91.00;;;;;;6187290;23;21010;-96
2023/09/07 15:46:11;;;;;;;3.23;2.53;;;24.80;91.10;;;;;;6193771;23;20442;-95
2023/09/07 15:48:39;;;;;;;3.23;2.93;;;24.70;91.20;;;;;;6187588;23;20413;-96
2023/09/07 15:51:06;;;;;;;3.80;2.97;;;24.70;91.20;;;;;;6187174;23;20725;-96
2023/09/07 15:53:33;;;;;;;6.30;3.30;;;24.70;91.20;;;;;;6187212;23;20952;-95
2023/09/07 15:56:00;;;;;;;6.43;3.03;;;24.70;91.10;;;;;;6186777;23;20993;-96
2023/09/07 15:58:27;;;;;;;3.27;2.70;;;24.70;91.10;;;;;;6187114;23;20413;-96
2023/09/07 16:00:55;;;;;;;4.17;3.77;;;24.70;91.10;;;;;;6186971;23;20489;-94
2023/09/07 16:03:22;;;;;;;3.30;3.10;;;24.70;91.00;;;;;;6186930;23;20443;-93
2023/09/07 16:05:49;;;;;;;3.30;3.00;;;24.70;91.10;;;;;;6186781;23;20924;-96
2023/09/07 16:08:16;;;;;;;2.90;2.70;;;24.70;91.00;;;;;;6187091;23;20417;-95
2023/09/07 16:10:43;;;;;;;3.70;3.00;;;24.70;91.00;;;;;;6186600;23;20494;-95
2023/09/07 16:13:10;;;;;;;3.20;2.90;;;24.70;91.10;;;;;;6186907;23;20406;-96
2023/09/07 16:15:37;;;;;;;4.70;2.80;;;24.70;91.00;;;;;;6186706;23;20399;-94
2023/09/07 16:18:05;;;;;;;3.93;2.90;;;24.70;91.10;;;;;;6186491;23;20403;-95
2023/09/07 16:20:32;;;;;;;3.90;3.00;;;24.70;91.00;;;;;;6189429;23;20481;-93
2023/09/07 16:22:59;;;;;;;4.70;3.13;;;24.70;91.10;;;;;;6192807;23;20434;-96
2023/09/07 16:25:26;;;;;;;3.10;2.67;;;24.70;91.00;;;;;;6193757;23;20403;-96
2023/09/07 16:27:55;;;;;;;3.20;3.00;;;24.70;91.10;;;;;;6194317;23;20451;-96
2023/09/07 16:30:22;;;;;;;3.50;3.20;;;24.70;91.00;;;;;;6195714;23;20471;-93
2023/09/07 16:32:50;;;;;;;2.77;2.57;;;24.70;91.00;;;;;;6194518;23;20398;-96
2023/09/07 16:35:19;;;;;;;3.10;2.90;;;24.70;91.00;;;;;;6194305;23;20473;-96
2023/09/07 16:37:46;;;;;;;2.83;2.57;;;24.70;91.00;;;;;;6199820;23;20901;-96
2023/09/07 16:40:15;;;;;;;3.10;2.90;;;24.70;91.00;;;;;;6197298;23;20462;-96
2023/09/07 16:42:42;;;;;;;2.70;2.53;;;24.70;91.00;;;;;;6173526;23;20716;-93
2023/09/07 16:45:09;;;;;;;3.57;3.27;;;24.70;91.10;;;;;;6199201;23;20429;-96
2023/09/07 16:47:37;;;;;;;4.50;2.90;;;24.70;91.00;;;;;;6197862;23;20430;-96
2023/09/07 16:50:04;;;;;;;3.40;3.17;;;24.70;91.00;;;;;;6193096;23;20410;-96
2023/09/07 16:52:32;;;;;;;3.07;2.60;;;24.70;91.00;;;;;;6192488;23;20403;-96
2023/09/07 16:54:59;;;;;;;3.43;3.13;;;24.70;91.00;;;;;;6192012;23;20431;-96
2023/09/07 16:57:28;;;;;;;2.90;2.70;;;24.70;91.00;;;;;;6195331;23;20407;-96
2023/09/07 16:59:55;;;;;;;3.83;3.43;;;24.70;91.10;;;;;;6191270;23;20883;-96
2023/09/07 17:02:22;;;;;;;3.60;2.77;;;24.70;91.00;;;;;;6192369;23;20402;-96
2023/09/07 17:04:49;;;;;;;3.33;3.13;;;24.70;91.00;;;;;;6165917;23;20489;-96
2023/09/07 17:07:16;;;;;;;3.57;3.03;;;24.70;91.00;;;;;;6193085;23;20410;-96
2023/09/07 17:09:45;;;;;;;2.90;2.70;;;24.70;91.00;;;;;;6196116;23;20486;-96
2023/09/07 17:12:14;;;;;;;3.10;2.90;;;24.70;91.10;;;;;;6195856;23;20434;-96
2023/09/07 17:14:42;;;;;;;3.07;2.87;;;24.70;91.10;;;;;;6170723;23;20399;-96
2023/09/07 17:17:10;;;;;;;3.10;2.90;;;24.70;91.10;;;;;;6196064;23;20399;-96
2023/09/07 17:19:37;;;;;;;2.97;2.67;;;24.70;91.00;;;;;;6195334;23;20442;-94
2023/09/07 17:22:05;;;;;;;3.20;3.00;;;24.70;91.00;;;;;;6193538;23;20722;-96
2023/09/07 17:24:32;;;;;;;3.17;2.97;;;24.70;91.10;;;;;;6194727;23;20454;-96
2023/09/07 17:27:00;;;;;;;3.20;3.00;;;24.70;91.00;;;;;;6195953;23;20434;-96
2023/09/07 17:29:28;;;;;;;2.97;2.63;;;24.70;91.10;;;;;;6169294;23;20445;-96
2023/09/07 17:31:55;;;;;;;3.67;2.93;;;24.80;91.10;;;;;;6195230;23;20406;-96
2023/09/07 17:34:24;;;;;;;3.77;3.47;;;24.70;91.00;;;;;;6193121;23;20525;-96
2023/09/07 17:36:51;;;;;;;3.13;2.90;;;24.70;91.10;;;;;;6194091;23;20497;-96
2023/09/07 17:39:18;;;;;;;3.40;3.20;;;24.70;91.10;;;;;;6193285;23;20433;-96
2023/09/07 17:41:44;;;;;;;3.33;3.10;;;24.70;91.10;;;;;;6193721;23;20403;-96
2023/09/07 17:44:13;;;;;;;2.50;2.30;;;24.70;91.10;;;;;;6197265;23;20446;-96
2023/09/07 17:46:40;;;;;;;2.80;2.60;;;24.70;91.10;;;;;;6196997;23;20466;-96
2023/09/07 17:49:08;;;;;;;3.23;3.00;;;24.70;91.10;;;;;;6197356;23;20515;-96
2023/09/07 17:51:35;;;;;;;3.30;3.10;;;24.70;91.10;;;;;;6195845;23;20407;-96
2023/09/07 17:54:02;;;;;;;3.33;2.60;;;24.70;91.10;;;;;;6196088;23;20415;-96
2023/09/07 17:56:29;;;;;;;2.73;2.50;;;24.70;91.10;;;;;;6195269;23;20489;-96
2023/09/07 17:58:56;;;;;;;3.50;3.20;;;24.70;91.10;;;;;;6194194;23;20462;-96
2023/09/07 18:01:27;;;;;;;3.50;3.20;;;24.70;91.10;;;;;;6194596;23;20399;-96
2023/09/07 18:03:53;;;;;;;4.27;3.17;;;24.70;91.10;;;;;;6194998;23;20426;-96
2023/09/07 18:06:20;;;;;;;2.73;2.53;;;24.70;91.10;;;;;;6193251;23;20438;-96
2023/09/07 18:08:49;;;;;;;3.30;3.00;;;24.70;91.10;;;;;;6193564;23;20433;-96
2023/09/07 18:11:18;;;;;;;3.63;3.30;;;24.70;91.20;;;;;;6194645;23;20413;-96
2023/09/07 18:13:45;;;;;;;4.70;2.67;;;24.70;91.20;;;;;;6194055;23;20469;-96
2023/09/07 18:16:12;;;;;;;4.97;2.87;;;24.70;91.20;;;;;;6193992;23;20426;-96
2023/09/07 18:18:40;;;;;;;2.77;2.57;;;24.60;91.10;;;;;;6192657;23;20457;-96
2023/09/07 18:21:08;;;;;;;3.30;3.00;;;24.70;91.20;;;;;;6192384;23;20430;-96
2023/09/07 18:23:35;;;;;;;2.83;2.63;;;24.70;91.10;;;;;;6192308;23;20447;-96
2023/09/07 18:26:02;;;;;;;2.90;2.70;;;24.70;91.10;;;;;;6191441;23;20498;-96
2023/09/07 18:28:30;;;;;;;3.50;3.20;;;24.70;91.10;;;;;;6190262;23;20399;-96
2023/09/07 18:30:57;;;;;;;2.90;2.60;;;24.70;91.10;;;;;;6191694;23;20708;-96
2023/09/07 18:33:24;;;;;;;2.90;2.70;;;24.70;91.10;;;;;;6191327;23;20883;-96
2023/09/07 18:36:02;;;;;;;3.80;3.50;;;24.70;91.10;;;;;;6191270;23;20466;-96
2023/09/07 18:38:29;;;;;;;4.03;2.60;;;24.70;91.10;;;;;;6191050;23;20387;-96
2023/09/07 18:40:56;;;;;;;2.83;2.63;;;24.70;91.10;;;;;;6190108;23;20407;-96
2023/09/07 18:43:23;;;;;;;3.20;2.77;;;24.70;91.10;;;;;;6188510;23;20402;-96
2023/09/07 18:45:50;;;;;;;2.90;2.70;;;24.60;91.10;;;;;;6191000;23;20489;-96
2023/09/07 18:48:17;;;;;;;3.20;2.90;;;24.70;91.10;;;;;;6191101;23;20414;-96
2023/09/07 18:50:44;;;;;;;2.90;2.70;;;24.70;91.10;;;;;;6189653;23;20493;-96
2023/09/07 18:53:12;;;;;;;2.60;2.40;;;24.70;91.10;;;;;;6189711;23;20453;-96
2023/09/07 18:55:40;;;;;;;2.50;2.30;;;24.70;91.10;;;;;;6189455;23;20408;-96
2023/09/07 18:58:07;;;;;;;2.87;2.67;;;24.70;91.10;;;;;;6189420;23;20966;-95
2023/09/07 19:00:35;;;;;;;3.33;3.07;;;24.60;91.00;;;;;;6189202;23;20411;-96
2023/09/07 19:03:03;;;;;;;3.13;2.93;;;24.70;91.10;;;;;;6191910;23;20465;-96
2023/09/07 19:05:29;;;;;;;3.07;2.87;;;24.70;91.10;;;;;;6196692;23;20505;-96
2023/09/07 19:07:56;;;;;;;2.93;2.73;;;24.60;91.00;;;;;;6188730;23;20407;-96
2023/09/07 19:10:24;;;;;;;2.80;2.60;;;24.70;91.10;;;;;;6192404;23;20463;-96
2023/09/07 19:12:51;;;;;;;2.80;2.60;;;24.70;91.10;;;;;;6196173;23;20402;-96
2023/09/07 19:17:47;;;;;;;3.07;2.87;;;24.70;91.10;;;;;;6141604;23;20424;-89
2023/09/07 19:20:15;;;;;;;3.50;3.20;;;24.70;91.10;;;;;;6131988;23;20453;-89
2023/09/07 19:22:42;;;;;;;2.97;2.77;;;24.70;91.10;;;;;;6145147;23;20453;-92
2023/09/07 19:25:17;;;;;;;3.40;3.10;;;24.70;91.10;;;;;;6194999;23;20441;-95
2023/09/07 19:27:45;;;;;;;3.33;3.03;;;24.80;91.10;;;;;;6196778;23;20441;-88
2023/09/07 19:30:12;;;;;;;3.10;2.90;;;24.80;91.10;;;;;;6179187;23;20555;-92
2023/09/07 19:35:14;;;;;;;2.43;2.33;;;24.80;91.10;;;;;;6181762;23;20537;-96
2023/09/07 19:37:41;;;;;;;2.80;2.60;;;24.80;91.10;;;;;;6184224;23;20505;-96
2023/09/07 19:40:10;;;;;;;2.63;2.50;;;24.80;91.10;;;;;;6198407;23;20471;-91
2023/09/07 19:42:37;;;;;;;2.60;2.40;;;24.80;91.10;;;;;;6181963;23;21456;-96
2023/09/07 19:45:06;;;;;;;3.13;2.93;;;24.80;91.10;;;;;;6152051;23;20446;-96
2023/09/07 19:47:33;;;;;;;2.67;2.47;;;24.80;91.20;;;;;;6174487;23;20482;-96
2023/09/07 19:50:26;;;;;;;3.03;2.83;;;24.80;91.20;;;;;;6175606;23;20396;-96
2023/09/07 20:00:34;;;;;;;4.20;2.90;;;24.80;91.20;;;;;;6150203;23;20471;-86
2023/09/07 20:05:29;;;;;;;6.77;4.50;;;24.80;91.00;;;;;;6201814;23;20458;-95
2023/09/07 20:07:56;;;;;;;5.07;4.67;;;24.80;91.00;;;;;;6191398;23;20438;-96
2023/09/07 20:10:23;;;;;;;8.30;5.67;;;24.70;90.90;;;;;;6187044;23;20407;-93
2023/09/07 20:12:51;;;;;;;5.83;5.33;;;24.70;90.90;;;;;;6186624;23;20407;-95
2023/09/07 20:15:18;;;;;;;6.47;5.83;;;24.70;91.00;;;;;;6186674;23;20403;-96
2023/09/07 20:17:47;;;;;;;7.57;5.30;;;24.60;91.00;;;;;;6187766;23;20495;-95
2023/09/07 20:20:14;;;;;;;9.63;5.70;;;24.60;91.10;;;;;;6186894;23;20454;-93
2023/09/07 20:22:41;;;;;;;10.27;5.67;;;24.60;91.10;;;;;;6186698;23;20435;-96
2023/09/07 20:25:09;;;;;;;6.43;5.83;;;24.70;91.20;;;;;;6186822;23;20478;-94
2023/09/07 20:27:36;;;;;;;12.37;5.53;;;24.60;91.10;;;;;;6186742;23;20457;-95
2023/09/07 20:30:03;;;;;;;9.50;5.80;;;24.60;91.20;;;;;;6186863;23;20399;-96
2023/09/07 20:32:29;;;;;;;6.00;5.50;;;24.60;91.20;;;;;;6186839;23;20407;-96